Time;durP1;ratioP1;P1;durP2;ratioP2;P2;SDS_P1;SDS_P2;PMS_P1;PMS_P2;Temp;Humidity;BMP_temperature;BMP_pressure;BME280_temperature;BME280_humidity;BME280_pressure;Samples;Min_cycle;Max_cycle;Signal;HPM_P1;HPM_P2
2023/09/29 00:01:52;;;;;;;;;;;;;;;14.34;78.11;100168.75;5066686;28;1524;-78
2023/09/29 00:04:44;;;;;;;;;;;;;;;14.34;78.15;100160.63;5054663;28;2152;-78
2023/09/29 00:07:37;;;;;;;;;;;;;;;14.34;78.02;100160.63;5061927;28;2047;-78
2023/09/29 00:10:31;;;;;;;;;;;;;;;14.33;78.13;100170.66;5059635;28;1616;-80
2023/09/29 00:13:23;;;;;;;;;;;;;;;14.32;77.99;100161.69;5064969;28;2406;-77
2023/09/29 00:16:15;;;;;;;;;;;;;;;14.33;78.06;100167.94;5059392;28;1649;-78
2023/09/29 00:19:07;;;;;;;;;;;;;;;14.33;78.07;100167.94;5060665;28;1845;-78
2023/09/29 00:21:59;;;;;;;;;;;;;;;14.32;78.13;100159.00;5060735;28;2279;-78
2023/09/29 00:24:51;;;;;;;;;;;;;;;14.33;77.97;100167.94;5065714;28;1528;-79
2023/09/29 00:27:43;;;;;;;;;;;;;;;14.32;78.05;100148.16;5053989;28;2094;-78
2023/09/29 00:30:35;;;;;;;;;;;;;;;14.32;78.00;100163.56;5059266;28;2108;-79
2023/09/29 00:33:27;;;;;;;;;;;;;;;14.34;77.94;100176.88;5056804;28;2275;-78
2023/09/29 00:36:19;;;;;;;;;;;;;;;14.32;77.84;100174.41;5051976;28;2144;-78
2023/09/29 00:39:13;;;;;;;;;;;;;;;14.32;77.96;100169.84;5057827;28;2063;-79
2023/09/29 00:42:06;;;;;;;;;;;;;;;14.31;77.77;100179.00;5059668;28;2212;-78
2023/09/29 00:44:58;;;;;;;;;;;;;;;14.32;77.93;100169.00;5049558;28;2179;-76
2023/09/29 00:47:50;;;;;;;;;;;;;;;14.31;77.78;100161.94;5058863;28;1902;-78
2023/09/29 00:50:42;;;;;;;;;;;;;;;14.31;77.91;100162.75;5054952;28;2452;-77
2023/09/29 00:53:35;;;;;;;;;;;;;;;14.31;77.80;100151.94;5053837;28;2045;-79
2023/09/29 00:56:28;;;;;;;;;;;;;;;14.31;77.82;100138.38;5059731;28;1987;-79
2023/09/29 00:59:20;;;;;;;;;;;;;;;14.31;77.74;100149.22;5053024;28;2093;-78
2023/09/29 01:02:12;;;;;;;;;;;;;;;14.30;77.71;100136.75;5055666;28;1990;-77
2023/09/29 01:05:04;;;;;;;;;;;;;;;14.30;77.93;100136.75;5057387;28;2088;-79
2023/09/29 01:07:56;;;;;;;;;;;;;;;14.30;77.71;100144.88;5081616;22;3526;-77
2023/09/29 01:10:48;;;;;;;;;;;;;;;14.30;77.86;100147.59;5059503;28;4590;-78
2023/09/29 01:13:41;;;;;;;;;;;;;;;14.31;77.62;100151.09;5069106;28;2024;-79
2023/09/29 01:16:32;;;;;;;;;;;;;;;14.31;77.64;100142.97;5056720;28;2147;-76
2023/09/29 01:19:24;;;;;;;;;;;;;;;14.30;77.82;100142.16;5062097;28;2135;-78
2023/09/29 01:22:16;;;;;;;;;;;;;;;14.29;77.76;100129.72;5068864;28;1992;-78
2023/09/29 01:25:07;;;;;;;;;;;;;;;14.29;77.55;100131.56;5063853;28;1988;-78
2023/09/29 01:27:59;;;;;;;;;;;;;;;14.29;77.59;100137.84;5060736;28;2541;-79
2023/09/29 01:30:53;;;;;;;;;;;;;;;14.30;77.67;100138.66;5059403;28;2019;-78
2023/09/29 01:33:45;;;;;;;;;;;;;;;14.29;77.59;100129.72;5065095;28;1993;-80
2023/09/29 01:36:36;;;;;;;;;;;;;;;14.27;77.67;100129.13;5068359;28;1794;-79
2023/09/29 01:39:28;;;;;;;;;;;;;;;14.29;77.75;100120.75;5067181;28;2103;-76
2023/09/29 01:42:20;;;;;;;;;;;;;;;14.29;77.59;100128.88;5066468;28;2094;-76
2023/09/29 01:45:13;;;;;;;;;;;;;;;14.29;77.60;100127.00;5062589;28;2173;-78
2023/09/29 01:48:05;;;;;;;;;;;;;;;14.29;77.60;100137.00;5068200;28;2105;-77
2023/09/29 01:50:57;;;;;;;;;;;;;;;14.28;77.60;100144.31;5062407;28;2105;-77
2023/09/29 01:53:51;;;;;;;;;;;;;;;14.28;77.52;100146.19;5068761;28;1930;-78
2023/09/29 01:56:43;;;;;;;;;;;;;;;14.28;77.65;100159.75;5071545;28;2057;-78
2023/09/29 01:59:36;;;;;;;;;;;;;;;14.28;77.57;100129.94;5066815;28;1855;-78
2023/09/29 02:02:27;;;;;;;;;;;;;;;14.28;77.69;100111.00;5066440;28;2447;-78
2023/09/29 02:05:18;;;;;;;;;;;;;;;14.27;77.65;100121.00;5055972;28;2073;-78
2023/09/29 02:08:10;;;;;;;;;;;;;;;14.28;77.52;100113.69;5061825;28;2483;-78
2023/09/29 02:11:01;;;;;;;;;;;;;;;14.26;77.57;100100.41;5064970;28;1963;-78
2023/09/29 02:13:53;;;;;;;;;;;;;;;14.26;77.68;100097.69;5065571;28;1518;-79
2023/09/29 02:16:44;;;;;;;;;;;;;;;14.26;77.57;100078.72;5066465;28;2193;-77
2023/09/29 02:19:36;;;;;;;;;;;;;;;14.27;77.55;100123.72;5065180;28;1988;-78
2023/09/29 02:22:30;;;;;;;;;;;;;;;14.26;77.66;100132.91;5067685;28;1995;-78
2023/09/29 02:25:25;;;;;;;;;;;;;;;14.26;77.58;100121.25;5066236;28;1909;-77
2023/09/29 02:28:17;;;;;;;;;;;;;;;14.26;77.50;100099.59;5054895;28;4039;-79
2023/09/29 02:31:10;;;;;;;;;;;;;;;14.26;77.56;100086.03;5066844;28;2210;-79
2023/09/29 02:34:02;;;;;;;;;;;;;;;14.26;77.66;100067.09;5063032;28;2265;-78
2023/09/29 02:36:54;;;;;;;;;;;;;;;14.25;77.53;100066.28;5061830;28;2047;-79
2023/09/29 02:39:46;;;;;;;;;;;;;;;14.25;77.64;100079.00;5064788;28;1923;-78
2023/09/29 02:42:38;;;;;;;;;;;;;;;14.25;77.63;100079.00;5061873;28;2211;-79
2023/09/29 02:45:30;;;;;;;;;;;;;;;14.25;77.59;100081.72;5065332;28;2170;-78
2023/09/29 02:48:22;;;;;;;;;;;;;;;14.25;77.43;100087.13;5065068;28;2190;-78
2023/09/29 02:51:14;;;;;;;;;;;;;;;14.25;77.58;100106.09;5067064;28;2003;-78
2023/09/29 02:54:06;;;;;;;;;;;;;;;14.24;77.63;100105.28;5059358;28;2129;-78
2023/09/29 02:56:58;;;;;;;;;;;;;;;14.24;77.53;100113.41;5070221;28;2119;-78
2023/09/29 02:59:50;;;;;;;;;;;;;;;14.24;77.59;100110.69;5061629;28;2138;-80
2023/09/29 03:02:42;;;;;;;;;;;;;;;14.23;77.49;100106.31;5067726;28;2066;-79
2023/09/29 03:05:34;;;;;;;;;;;;;;;14.24;77.54;100099.03;5067281;28;1957;-79
2023/09/29 03:08:26;;;;;;;;;;;;;;;14.23;77.65;100081.94;5069030;28;1906;-79
2023/09/29 03:11:18;;;;;;;;;;;;;;;14.23;77.51;100081.94;5066809;28;2174;-77
2023/09/29 03:14:11;;;;;;;;;;;;;;;14.24;77.47;100077.38;5066868;28;2489;-78
2023/09/29 03:17:03;;;;;;;;;;;;;;;14.23;77.27;100075.72;5072283;28;1781;-79
2023/09/29 03:19:55;;;;;;;;;;;;;;;14.23;77.65;100073.81;5071853;28;2198;-78
2023/09/29 03:22:48;;;;;;;;;;;;;;;14.24;77.47;100077.38;5062755;28;1917;-78
2023/09/29 03:25:39;;;;;;;;;;;;;;;14.22;77.64;100080.31;5069491;28;2129;-78
2023/09/29 03:28:31;;;;;;;;;;;;;;;14.22;77.64;100085.75;5062597;28;1898;-78
2023/09/29 03:31:23;;;;;;;;;;;;;;;14.22;77.66;100093.88;5064693;28;1886;-78
2023/09/29 03:34:15;;;;;;;;;;;;;;;14.24;77.57;100091.72;5066180;28;2110;-77
2023/09/29 03:37:07;;;;;;;;;;;;;;;14.22;77.55;100082.22;5073070;28;942;-79
2023/09/29 03:39:59;;;;;;;;;;;;;;;14.23;77.63;100073.00;5067952;28;2193;-78
2023/09/29 03:42:51;;;;;;;;;;;;;;;14.21;77.50;100067.88;5064145;28;1553;-79
2023/09/29 03:45:43;;;;;;;;;;;;;;;14.22;77.46;100071.38;5067864;28;2023;-78
2023/09/29 03:48:36;;;;;;;;;;;;;;;14.22;77.42;100074.09;5062636;28;2107;-78
2023/09/29 03:51:30;;;;;;;;;;;;;;;14.21;77.65;100073.28;5066547;28;2015;-79
2023/09/29 03:54:21;;;;;;;;;;;;;;;14.21;77.54;100073.28;5069156;28;2290;-78
2023/09/29 03:57:12;;;;;;;;;;;;;;;14.20;77.59;100071.63;5070118;28;2042;-79
2023/09/29 04:00:05;;;;;;;;;;;;;;;14.22;77.45;100079.50;5063304;28;2212;-78
2023/09/29 04:02:57;;;;;;;;;;;;;;;14.20;77.59;100073.53;5067178;28;1494;-78
2023/09/29 04:05:49;;;;;;;;;;;;;;;14.20;77.63;100068.91;5066521;28;2071;-78
2023/09/29 04:08:40;;;;;;;;;;;;;;;14.20;77.48;100077.03;5068536;28;1991;-78
2023/09/29 04:11:31;;;;;;;;;;;;;;;14.20;77.64;100077.03;5064172;28;946;-79
2023/09/29 04:14:23;;;;;;;;;;;;;;;14.19;77.45;100075.41;5070069;28;2110;-79
2023/09/29 04:17:15;;;;;;;;;;;;;;;14.19;77.47;100070.00;5063746;28;2474;-79
2023/09/29 04:20:07;;;;;;;;;;;;;;;14.19;77.45;100071.91;5068256;28;2173;-77
2023/09/29 04:23:00;;;;;;;;;;;;;;;14.19;77.17;100072.72;5067311;28;1545;-78
2023/09/29 04:25:51;;;;;;;;;;;;;;;14.20;77.59;100062.69;5061569;28;2293;-78
2023/09/29 04:28:43;;;;;;;;;;;;;;;14.18;77.42;100059.44;5054312;28;4602;-78
2023/09/29 04:31:34;;;;;;;;;;;;;;;14.19;77.64;100055.66;5069230;28;2255;-77
2023/09/29 04:34:26;;;;;;;;;;;;;;;14.18;77.51;100060.25;5066519;28;2236;-78
2023/09/29 04:37:18;;;;;;;;;;;;;;;14.18;77.56;100062.97;5065543;28;2194;-77
2023/09/29 04:40:09;;;;;;;;;;;;;;;14.18;77.42;100062.97;5071707;28;2166;-77
2023/09/29 04:43:03;;;;;;;;;;;;;;;14.18;77.45;100062.16;5067441;28;2156;-79
2023/09/29 04:45:54;;;;;;;;;;;;;;;14.17;77.59;100050.47;5065139;28;1828;-80
2023/09/29 04:48:46;;;;;;;;;;;;;;;14.18;77.43;100040.47;5066634;28;2258;-75
2023/09/29 04:51:38;;;;;;;;;;;;;;;14.18;77.42;100045.91;5065175;28;4411;-76
2023/09/29 04:54:30;;;;;;;;;;;;;;;14.17;77.44;100047.75;5066522;28;2175;-77
2023/09/29 04:57:21;;;;;;;;;;;;;;;14.17;77.49;100045.06;5069038;28;2197;-76
2023/09/29 05:00:13;;;;;;;;;;;;;;;14.17;77.43;100031.50;5066397;28;1518;-80
2023/09/29 05:03:05;;;;;;;;;;;;;;;14.17;77.42;100033.41;5073117;28;1878;-78
2023/09/29 05:05:57;;;;;;;;;;;;;;;14.17;77.46;100026.09;5065796;28;1848;-78
2023/09/29 05:08:49;;;;;;;;;;;;;;;14.16;77.30;100013.63;5066223;28;2090;-78
2023/09/29 05:11:41;;;;;;;;;;;;;;;14.16;77.45;100018.25;5062363;28;1840;-78
2023/09/29 05:14:33;;;;;;;;;;;;;;;14.16;77.50;100012.84;5060263;28;2117;-78
2023/09/29 05:17:25;;;;;;;;;;;;;;;14.16;77.41;100013.63;5068266;28;2091;-78
2023/09/29 05:20:17;;;;;;;;;;;;;;;14.15;77.55;100006.59;5061081;28;1002;-78
2023/09/29 05:23:09;;;;;;;;;;;;;;;14.16;77.44;100007.41;5061267;28;2682;-77
2023/09/29 05:26:02;;;;;;;;;;;;;;;14.15;77.57;100009.31;5068277;28;2100;-80
2023/09/29 05:28:55;;;;;;;;;;;;;;;14.15;77.38;100009.31;5061943;28;1965;-78
2023/09/29 05:31:46;;;;;;;;;;;;;;;14.15;77.39;100006.59;5060268;28;1768;-79
2023/09/29 05:34:37;;;;;;;;;;;;;;;14.15;77.59;100006.59;5063322;28;1660;-78
2023/09/29 05:37:30;;;;;;;;;;;;;;;14.15;77.48;99998.47;5065691;28;2084;-78
2023/09/29 05:40:25;;;;;;;;;;;;;;;14.15;77.56;100011.19;5065538;28;1783;-79
2023/09/29 05:43:17;;;;;;;;;;;;;;;14.15;77.44;100009.31;5061769;28;1922;-78
2023/09/29 05:46:09;;;;;;;;;;;;;;;14.14;77.39;100004.13;5063633;28;1885;-78
2023/09/29 05:49:01;;;;;;;;;;;;;;;14.13;77.44;100003.31;5060329;28;1910;-78
2023/09/29 05:51:53;;;;;;;;;;;;;;;14.13;77.57;100000.63;5063448;28;1357;-79
2023/09/29 05:54:46;;;;;;;;;;;;;;;14.14;77.43;99988.69;5063945;28;2047;-79
2023/09/29 05:57:38;;;;;;;;;;;;;;;14.14;77.56;99991.41;5056564;28;4816;-78
2023/09/29 06:00:31;;;;;;;;;;;;;;;14.13;77.52;100000.63;5061860;28;4901;-76
2023/09/29 06:03:22;;;;;;;;;;;;;;;14.13;77.52;99994.38;5063348;28;2348;-77
2023/09/29 06:06:14;;;;;;;;;;;;;;;14.13;77.53;100005.22;5071990;28;1758;-79
2023/09/29 06:09:06;;;;;;;;;;;;;;;14.13;77.34;100006.03;5062443;28;2012;-79
2023/09/29 06:11:58;;;;;;;;;;;;;;;14.11;77.53;100012.78;5064899;28;1889;-79
2023/09/29 06:14:50;;;;;;;;;;;;;;;14.13;77.60;100010.63;5069469;28;1500;-77
2023/09/29 06:17:42;;;;;;;;;;;;;;;14.12;77.58;100017.09;5061950;28;1989;-77
2023/09/29 06:20:34;;;;;;;;;;;;;;;14.12;77.40;100017.09;5061153;28;1394;-78
2023/09/29 06:23:26;;;;;;;;;;;;;;;14.12;77.61;100022.53;5066139;28;1942;-78
2023/09/29 06:26:18;;;;;;;;;;;;;;;14.11;77.54;100004.66;5064742;28;1920;-78
2023/09/29 06:29:10;;;;;;;;;;;;;;;14.11;77.55;100019.00;5064498;28;1902;-77
2023/09/29 06:32:02;;;;;;;;;;;;;;;14.10;77.51;100011.97;5068083;28;1973;-78
2023/09/29 06:34:54;;;;;;;;;;;;;;;14.11;77.41;100010.06;5064955;28;1112;-77
2023/09/29 06:37:46;;;;;;;;;;;;;;;14.10;77.55;100014.66;5069761;28;1937;-78
2023/09/29 06:40:38;;;;;;;;;;;;;;;14.09;77.55;100002.22;5071694;28;2130;-77
2023/09/29 06:43:30;;;;;;;;;;;;;;;14.11;77.52;100001.94;5068017;28;1588;-78
2023/09/29 06:46:23;;;;;;;;;;;;;;;14.09;77.25;100013.03;5070949;28;1941;-77
2023/09/29 06:49:14;;;;;;;;;;;;;;;14.11;77.54;100020.91;5067545;28;5524;-79
2023/09/29 06:52:05;;;;;;;;;;;;;;;14.09;77.43;100016.56;5069356;28;994;-78
2023/09/29 06:54:57;;;;;;;;;;;;;;;14.09;77.46;100013.84;5069725;28;4299;-78
2023/09/29 06:57:52;;;;;;;;;;;;;;;14.10;77.40;100022.78;5068165;28;1002;-79
2023/09/29 07:00:44;;;;;;;;;;;;;;;14.08;77.39;100001.38;5068632;28;1780;-77
2023/09/29 07:03:36;;;;;;;;;;;;;;;14.09;77.53;100010.34;5067194;28;2173;-79
2023/09/29 07:06:28;;;;;;;;;;;;;;;14.09;77.45;100013.03;5066773;28;4258;-79
2023/09/29 07:09:20;;;;;;;;;;;;;;;14.09;77.58;100016.56;5067772;28;2252;-78
2023/09/29 07:12:12;;;;;;;;;;;;;;;14.10;77.38;100020.09;5072696;28;1548;-78
2023/09/29 07:15:04;;;;;;;;;;;;;;;14.09;77.36;100021.97;5067588;28;2185;-79
2023/09/29 07:17:56;;;;;;;;;;;;;;;14.09;77.35;100026.59;5061135;28;2232;-79
2023/09/29 07:20:50;;;;;;;;;;;;;;;14.08;77.40;100028.44;5069775;28;2203;-79
2023/09/29 07:23:42;;;;;;;;;;;;;;;14.08;77.39;100023.03;5068110;28;1549;-77
2023/09/29 07:26:33;;;;;;;;;;;;;;;14.09;77.53;100023.88;5062711;28;1082;-77
2023/09/29 07:29:25;;;;;;;;;;;;;;;14.08;77.41;100024.94;5063266;28;4631;-81
2023/09/29 07:32:17;;;;;;;;;;;;;;;14.08;77.50;100025.75;5064222;28;2134;-77
2023/09/29 07:35:09;;;;;;;;;;;;;;;14.08;77.42;100033.88;5071108;28;5028;-77
2023/09/29 07:38:01;;;;;;;;;;;;;;;14.09;77.46;100026.59;5067384;28;2206;-79
2023/09/29 07:40:52;;;;;;;;;;;;;;;14.08;77.33;100025.75;5063548;28;2222;-78
2023/09/29 07:43:44;;;;;;;;;;;;;;;14.08;77.49;100017.63;5069517;28;4536;-78
2023/09/29 07:46:36;;;;;;;;;;;;;;;14.08;77.58;100017.63;5065145;28;2175;-78
2023/09/29 07:49:28;;;;;;;;;;;;;;;14.08;77.37;100014.91;5067556;28;3958;-79
2023/09/29 07:52:27;;;;;;;;;;;;;;;14.08;77.43;100014.91;5061065;28;2665;-78
2023/09/29 07:55:18;;;;;;;;;;;;;;;14.08;77.58;100012.19;5072956;28;2101;-79
2023/09/29 07:58:10;;;;;;;;;;;;;;;14.08;77.33;100004.06;5066392;28;2384;-78
2023/09/29 08:01:02;;;;;;;;;;;;;;;14.08;77.45;100014.91;5061679;28;4174;-77
2023/09/29 08:03:54;;;;;;;;;;;;;;;14.07;77.55;100021.41;5067950;28;2069;-77
2023/09/29 08:06:46;;;;;;;;;;;;;;;14.07;77.41;100010.56;5065868;28;2328;-78
2023/09/29 08:09:38;;;;;;;;;;;;;;;14.08;77.48;100008.69;5071937;28;2382;-79
2023/09/29 08:12:30;;;;;;;;;;;;;;;14.08;77.49;100008.69;5061200;28;2304;-77
2023/09/29 08:15:24;;;;;;;;;;;;;;;14.06;77.51;100011.66;5063721;28;2164;-78
2023/09/29 08:18:16;;;;;;;;;;;;;;;14.08;77.67;100011.38;5070472;28;2313;-78
2023/09/29 08:21:08;;;;;;;;;;;;;;;14.07;77.57;100012.47;5066568;28;905;-79
2023/09/29 08:23:59;;;;;;;;;;;;;;;14.08;77.29;100016.81;5064065;28;1628;-78
2023/09/29 08:26:51;;;;;;;;;;;;;;;14.07;77.59;100010.56;5069180;28;5183;-79
2023/09/29 08:29:43;;;;;;;;;;;;;;;14.07;77.51;100007.88;5072109;28;2493;-79
2023/09/29 08:32:35;;;;;;;;;;;;;;;14.07;77.46;100010.56;5060667;28;2283;-79
2023/09/29 08:35:28;;;;;;;;;;;;;;;14.06;77.69;100008.94;5066592;28;1037;-78
2023/09/29 08:38:20;;;;;;;;;;;;;;;14.08;77.23;100022.22;5065869;28;2092;-79
2023/09/29 08:41:11;;;;;;;;;;;;;;;14.06;77.49;100021.69;5061490;28;1160;-78
2023/09/29 08:44:04;;;;;;;;;;;;;;;14.07;77.67;100024.13;5070572;28;2016;-78
2023/09/29 08:46:55;;;;;;;;;;;;;;;14.07;77.50;100021.41;5068249;28;1818;-78
2023/09/29 08:49:48;;;;;;;;;;;;;;;14.07;77.52;100015.19;5067905;28;1973;-78
2023/09/29 08:52:39;;;;;;;;;;;;;;;14.06;77.42;100022.50;5061333;28;1051;-78
2023/09/29 08:55:31;;;;;;;;;;;;;;;14.06;77.64;100021.69;5068674;28;2285;-77
2023/09/29 08:58:24;;;;;;;;;;;;;;;14.07;77.63;100024.13;5069372;28;2235;-78
2023/09/29 09:01:20;;;;;;;;;;;;;;;14.06;77.64;100010.84;5061813;28;1785;-79
2023/09/29 09:04:11;;;;;;;;;;;;;;;14.06;77.47;100016.25;5063230;28;4972;-76
2023/09/29 09:07:03;;;;;;;;;;;;;;;14.06;77.59;100025.19;5065808;28;1248;-78
2023/09/29 09:09:55;;;;;;;;;;;;;;;14.05;77.42;100026.25;5069257;28;3732;-78
2023/09/29 09:12:46;;;;;;;;;;;;;;;14.07;77.43;100036.84;5068866;28;2149;-78
2023/09/29 09:15:38;;;;;;;;;;;;;;;14.06;77.47;100036.03;5063410;28;2115;-78
2023/09/29 09:18:30;;;;;;;;;;;;;;;14.06;77.62;100029.81;5059975;28;2175;-79
2023/09/29 09:21:22;;;;;;;;;;;;;;;14.06;77.46;100029.81;5062277;28;3844;-79
2023/09/29 09:24:14;;;;;;;;;;;;;;;14.06;77.63;100024.38;5068654;28;864;-79
2023/09/29 09:27:07;;;;;;;;;;;;;;;14.06;77.47;100022.50;5065413;28;1909;-79
2023/09/29 09:29:59;;;;;;;;;;;;;;;14.06;77.63;100027.09;5057719;28;4756;-79
2023/09/29 09:32:50;;;;;;;;;;;;;;;14.09;78.97;100026.59;5069617;28;2195;-75
2023/09/29 09:35:42;;;;;;;;;;;;;;;14.09;78.76;100027.41;5064598;28;1796;-77
2023/09/29 09:38:34;;;;;;;;;;;;;;;14.08;78.08;100023.03;5062810;28;1224;-78
2023/09/29 09:41:25;;;;;;;;;;;;;;;14.06;78.09;100027.91;5066646;28;2282;-78
2023/09/29 09:44:19;;;;;;;;;;;;;;;14.07;78.16;100024.13;5067369;28;1957;-77
2023/09/29 09:47:11;;;;;;;;;;;;;;;14.06;78.24;100017.06;5071619;28;1557;-77
2023/09/29 09:50:02;;;;;;;;;;;;;;;14.06;78.20;100013.56;5060189;28;2128;-78
2023/09/29 09:52:54;;;;;;;;;;;;;;;14.06;78.04;100011.66;5066781;28;959;-78
2023/09/29 09:55:46;;;;;;;;;;;;;;;14.07;78.21;100001.66;5065426;28;2021;-78
2023/09/29 09:58:38;;;;;;;;;;;;;;;14.06;78.25;100011.66;5063645;28;2194;-77
2023/09/29 10:01:30;;;;;;;;;;;;;;;14.06;78.08;100000.84;5062625;28;1501;-76
2023/09/29 10:04:24;;;;;;;;;;;;;;;14.07;78.23;100001.66;5060824;28;2470;-77
2023/09/29 10:07:17;;;;;;;;;;;;;;;14.06;78.19;99995.41;5069330;28;2390;-78
2023/09/29 10:10:09;;;;;;;;;;;;;;;14.06;78.23;99995.41;5068674;28;2282;-76
2023/09/29 10:13:01;;;;;;;;;;;;;;;14.06;78.22;99990.00;5072920;28;1961;-79
2023/09/29 10:15:52;;;;;;;;;;;;;;;14.06;78.24;100000.03;5067593;28;2183;-78
2023/09/29 10:18:44;;;;;;;;;;;;;;;14.06;78.11;100005.44;5071414;28;1300;-79
2023/09/29 10:21:37;;;;;;;;;;;;;;;14.04;78.14;99997.56;5069743;28;2116;-79
2023/09/29 10:24:28;;;;;;;;;;;;;;;14.06;78.21;100002.72;5072422;28;1487;-79
2023/09/29 10:27:20;;;;;;;;;;;;;;;14.06;78.13;100002.72;5064695;28;2101;-79
2023/09/29 10:30:16;;;;;;;;;;;;;;;14.06;78.26;99995.41;5067032;28;1910;-79
2023/09/29 10:33:09;;;;;;;;;;;;;;;14.05;77.99;99996.47;5064815;28;2204;-78
2023/09/29 10:36:03;;;;;;;;;;;;;;;14.06;78.00;99987.28;5069067;28;2151;-79
2023/09/29 10:38:57;;;;;;;;;;;;;;;14.06;77.97;99994.59;5065581;28;2140;-79
2023/09/29 10:41:50;;;;;;;;;;;;;;;14.05;77.97;99993.75;5070209;28;2095;-78
2023/09/29 10:44:41;;;;;;;;;;;;;;;14.06;78.05;99987.28;5072610;28;1090;-78
2023/09/29 10:47:32;;;;;;;;;;;;;;;14.07;78.21;99990.81;5062285;28;2223;-77
2023/09/29 10:50:24;;;;;;;;;;;;;;;14.05;78.20;99985.63;5071676;28;1969;-78
2023/09/29 10:53:16;;;;;;;;;;;;;;;14.06;78.00;99978.34;5071171;28;1997;-78
2023/09/29 10:56:09;;;;;;;;;;;;;;;14.07;78.12;99985.41;5069991;28;2253;-78
2023/09/29 10:59:00;;;;;;;;;;;;;;;14.06;78.09;99991.91;5059098;28;1081;-78
2023/09/29 11:01:52;;;;;;;;;;;;;;;14.06;78.20;99987.28;5068079;28;1921;-78
2023/09/29 11:04:46;;;;;;;;;;;;;;;14.06;78.28;99990.00;5070153;28;1977;-78
2023/09/29 11:07:38;;;;;;;;;;;;;;;14.06;78.11;99992.72;5068012;28;2445;-79
2023/09/29 11:10:29;;;;;;;;;;;;;;;14.06;78.26;99994.59;5061618;28;2121;-79
2023/09/29 11:13:21;;;;;;;;;;;;;;;14.07;78.32;100001.66;5064335;28;2525;-78
2023/09/29 11:16:12;;;;;;;;;;;;;;;14.07;78.04;99993.53;5070523;28;2261;-77
2023/09/29 11:19:04;;;;;;;;;;;;;;;14.06;78.17;99995.41;5069985;28;1157;-77
2023/09/29 11:21:58;;;;;;;;;;;;;;;14.07;78.13;99988.09;5073749;28;1226;-77
2023/09/29 11:24:51;;;;;;;;;;;;;;;14.06;78.02;99992.72;5064653;28;1820;-79
2023/09/29 11:27:42;;;;;;;;;;;;;;;14.07;78.11;99991.63;5065134;28;1002;-78
2023/09/29 11:30:34;;;;;;;;;;;;;;;14.06;78.10;99981.88;5065044;28;5034;-78
2023/09/29 11:33:26;;;;;;;;;;;;;;;14.07;78.25;99975.38;5065791;28;2326;-78
2023/09/29 11:36:17;;;;;;;;;;;;;;;14.07;78.06;99979.97;5067568;28;1248;-78
2023/09/29 11:39:10;;;;;;;;;;;;;;;14.07;78.03;99983.50;5062408;28;1630;-80
2023/09/29 11:42:01;;;;;;;;;;;;;;;14.06;78.25;99981.88;5071465;28;2265;-78
2023/09/29 11:44:52;;;;;;;;;;;;;;;14.07;78.21;99986.22;5070066;28;5052;-77
2023/09/29 11:47:44;;;;;;;;;;;;;;;14.09;78.22;99977.84;5069835;28;4075;-77
2023/09/29 11:50:36;;;;;;;;;;;;;;;14.08;78.13;99971.59;5074303;28;1910;-77
2023/09/29 11:53:27;;;;;;;;;;;;;;;14.07;78.03;99972.66;5071503;28;2324;-79
2023/09/29 11:56:20;;;;;;;;;;;;;;;14.08;78.13;99955.34;5069987;28;2008;-79
2023/09/29 11:59:12;;;;;;;;;;;;;;;14.08;77.94;99960.75;5068274;28;1768;-78
2023/09/29 12:02:03;;;;;;;;;;;;;;;14.09;77.79;99956.19;5061685;28;2328;-79
2023/09/29 12:04:55;;;;;;;;;;;;;;;14.09;77.98;99953.47;5061800;28;3900;-77
2023/09/29 12:07:47;;;;;;;;;;;;;;;14.08;78.16;99951.81;5059156;28;1616;-78
2023/09/29 12:10:39;;;;;;;;;;;;;;;14.09;77.91;99951.59;5067240;28;2277;-77
2023/09/29 12:13:33;;;;;;;;;;;;;;;14.08;78.18;99955.34;5063182;28;1744;-80
2023/09/29 12:16:24;;;;;;;;;;;;;;;14.09;78.00;99954.28;5068054;28;1065;-79
2023/09/29 12:19:16;;;;;;;;;;;;;;;14.08;77.97;99949.91;5065586;28;2040;-77
2023/09/29 12:22:08;;;;;;;;;;;;;;;14.09;78.16;99951.59;5065928;28;2167;-80
2023/09/29 12:25:00;;;;;;;;;;;;;;;14.09;78.09;99957.00;5067711;28;2043;-79
2023/09/29 12:27:52;;;;;;;;;;;;;;;14.09;77.97;99950.75;5073383;28;959;-77
2023/09/29 12:30:44;;;;;;;;;;;;;;;14.10;78.13;99946.97;5068157;28;2253;-77
2023/09/29 12:33:36;;;;;;;;;;;;;;;14.11;78.06;99947.78;5069672;28;1778;-77
2023/09/29 12:36:28;;;;;;;;;;;;;;;14.11;77.99;99950.50;5069704;28;2342;-78
2023/09/29 12:39:20;;;;;;;;;;;;;;;14.11;77.86;99939.66;5060468;28;1882;-76
2023/09/29 12:42:12;;;;;;;;;;;;;;;14.11;77.88;99950.50;5061636;28;2589;-79
2023/09/29 12:45:05;;;;;;;;;;;;;;;14.10;77.81;99936.16;5063441;28;2273;-78
2023/09/29 12:47:57;;;;;;;;;;;;;;;14.11;77.95;99935.06;5067701;28;2316;-80
2023/09/29 12:50:48;;;;;;;;;;;;;;;14.11;77.82;99932.34;5071088;28;1914;-79
2023/09/29 12:53:40;;;;;;;;;;;;;;;14.12;77.72;99933.16;5070671;28;896;-78
2023/09/29 12:56:32;;;;;;;;;;;;;;;14.12;77.75;99931.28;5062553;28;2219;-79
2023/09/29 12:59:26;;;;;;;;;;;;;;;14.13;77.70;99935.63;5068455;28;1843;-80
2023/09/29 13:02:17;;;;;;;;;;;;;;;14.12;77.80;99930.47;5069680;28;1837;-77
2023/09/29 13:05:09;;;;;;;;;;;;;;;14.12;77.83;99939.41;5058900;28;2186;-77
2023/09/29 13:08:03;;;;;;;;;;;;;;;14.13;77.81;99935.63;5066546;28;2029;-77
2023/09/29 13:10:56;;;;;;;;;;;;;;;14.13;77.78;99935.63;5065449;28;1953;-79
2023/09/29 13:13:47;;;;;;;;;;;;;;;14.12;77.98;99931.28;5069873;28;1827;-79
2023/09/29 13:16:40;;;;;;;;;;;;;;;14.13;77.97;99938.34;5068202;28;1859;-79
2023/09/29 13:19:31;;;;;;;;;;;;;;;14.14;77.80;99928.31;5068341;28;1443;-79
2023/09/29 13:22:23;;;;;;;;;;;;;;;14.14;77.80;99921.00;5069207;28;1357;-76
2023/09/29 13:25:15;;;;;;;;;;;;;;;14.14;77.89;99915.59;5065541;28;2344;-79
2023/09/29 13:28:07;;;;;;;;;;;;;;;14.16;77.73;99909.94;5062242;28;2125;-79
2023/09/29 13:31:01;;;;;;;;;;;;;;;14.15;77.62;99911.81;5061818;28;3519;-78
2023/09/29 13:33:52;;;;;;;;;;;;;;;14.16;77.81;99918.06;5068313;28;3841;-77
2023/09/29 13:36:45;;;;;;;;;;;;;;;14.15;77.58;99914.53;5066096;28;2285;-76
2023/09/29 13:39:36;;;;;;;;;;;;;;;14.15;77.70;99906.41;5069822;28;1553;-77
2023/09/29 13:42:31;;;;;;;;;;;;;;;14.17;77.60;99895.31;5061948;28;2309;-79
2023/09/29 13:45:23;;;;;;;;;;;;;;;14.17;77.80;99908.84;5069863;28;1739;-76
2023/09/29 13:48:15;;;;;;;;;;;;;;;14.18;77.82;99895.06;5066132;28;1635;-77
2023/09/29 13:51:07;;;;;;;;;;;;;;;14.19;77.87;99904.00;5064555;28;2362;-78
2023/09/29 13:53:58;;;;;;;;;;;;;;;14.18;77.77;99905.88;5062661;28;1922;-78
2023/09/29 13:56:50;;;;;;;;;;;;;;;14.18;77.93;99905.88;5068450;28;1989;-78
2023/09/29 13:59:42;;;;;;;;;;;;;;;14.19;77.78;99890.44;5068944;28;1246;-79
2023/09/29 14:02:34;;;;;;;;;;;;;;;14.18;77.90;99892.34;5068249;28;2364;-79
2023/09/29 14:05:27;;;;;;;;;;;;;;;14.20;77.79;99894.78;5064523;28;1471;-78
2023/09/29 14:08:19;;;;;;;;;;;;;;;14.20;77.87;99900.19;5064012;28;2060;-77
2023/09/29 14:11:10;;;;;;;;;;;;;;;14.20;77.97;99900.19;5061068;28;4797;-77
2023/09/29 14:14:02;;;;;;;;;;;;;;;14.20;77.74;99906.41;5067799;28;2278;-79
2023/09/29 14:16:54;;;;;;;;;;;;;;;14.22;77.71;99906.19;5066443;28;5041;-78
2023/09/29 14:19:46;;;;;;;;;;;;;;;14.21;77.87;99891.81;5065489;28;1927;-79
2023/09/29 14:22:39;;;;;;;;;;;;;;;14.22;77.73;99884.50;5068625;28;3945;-77
2023/09/29 14:25:30;;;;;;;;;;;;;;;14.22;77.78;99873.69;5062384;28;2034;-78
2023/09/29 14:28:22;;;;;;;;;;;;;;;14.22;77.91;99889.94;5067412;28;2142;-78
2023/09/29 14:31:14;;;;;;;;;;;;;;;14.21;77.78;99881.00;5065233;28;1969;-78
2023/09/29 14:34:05;;;;;;;;;;;;;;;14.23;77.84;99876.13;5061708;28;3646;-78
2023/09/29 14:36:56;;;;;;;;;;;;;;;14.23;77.75;99872.59;5069032;28;1391;-80
2023/09/29 14:39:49;;;;;;;;;;;;;;;14.24;77.81;99879.66;5071280;28;987;-78
2023/09/29 14:42:40;;;;;;;;;;;;;;;14.24;77.98;99883.19;5068001;28;2309;-77
2023/09/29 14:45:32;;;;;;;;;;;;;;;14.24;78.03;99871.53;5066960;28;1532;-79
2023/09/29 14:48:24;;;;;;;;;;;;;;;14.24;77.78;99868.84;5066736;28;1613;-76
2023/09/29 14:51:17;;;;;;;;;;;;;;;14.25;78.04;99857.72;5067462;28;2100;-79
2023/09/29 14:54:09;;;;;;;;;;;;;;;14.25;77.85;99851.50;5070965;28;2262;-78
2023/09/29 14:57:00;;;;;;;;;;;;;;;14.25;77.96;99851.50;5070099;28;1761;-78
2023/09/29 14:59:52;;;;;;;;;;;;;;;14.25;77.83;99852.31;5069184;28;1837;-80